Time;durP1;ratioP1;P1;durP2;ratioP2;P2;SDS_P1;SDS_P2;PMS_P1;PMS_P2;Temp;Humidity;BMP_temperature;BMP_pressure;BME280_temperature;BME280_humidity;BME280_pressure;Samples;Min_cycle;Max_cycle;Signal;HPM_P1;HPM_P2
2022/07/19 00:00:08;;;;;;;6.13;4.70;;;;;;;;;;5071818;28;20098;-57
2022/07/19 00:02:34;;;;;;;9.20;5.37;;;;;;;;;;5071748;28;20055;-57
2022/07/19 00:05:00;;;;;;;12.17;5.40;;;;;;;;;;5071911;28;20114;-57
2022/07/19 00:07:26;;;;;;;10.97;6.37;;;;;;;;;;5071813;28;20076;-56
2022/07/19 00:09:52;;;;;;;8.37;5.53;;;;;;;;;;5071412;28;20190;-57
2022/07/19 00:12:18;;;;;;;7.00;5.10;;;;;;;;;;5071761;28;20193;-57
2022/07/19 00:14:44;;;;;;;7.27;5.57;;;;;;;;;;5071577;28;20052;-57
2022/07/19 00:17:10;;;;;;;8.20;5.83;;;;;;;;;;5071575;28;20121;-57
2022/07/19 00:19:36;;;;;;;9.73;5.43;;;;;;;;;;5071687;28;20037;-58
2022/07/19 00:22:03;;;;;;;10.17;6.17;;;;;;;;;;5071093;28;20056;-58
2022/07/19 00:24:29;;;;;;;7.93;5.73;;;;;;;;;;5071450;28;20130;-57
2022/07/19 00:26:55;;;;;;;8.43;5.97;;;;;;;;;;5071570;28;20230;-57
2022/07/19 00:29:21;;;;;;;9.53;6.00;;;;;;;;;;5071255;28;20173;-57
2022/07/19 00:31:47;;;;;;;8.97;6.07;;;;;;;;;;5071195;28;20545;-57
2022/07/19 00:34:13;;;;;;;8.10;5.57;;;;;;;;;;5070513;28;20045;-57
2022/07/19 00:36:39;;;;;;;8.97;4.80;;;;;;;;;;5071656;28;20050;-57
2022/07/19 00:39:05;;;;;;;10.70;6.17;;;;;;;;;;5071016;28;20131;-57
2022/07/19 00:41:31;;;;;;;9.07;6.03;;;;;;;;;;5071007;28;20206;-57
2022/07/19 00:43:57;;;;;;;8.13;5.80;;;;;;;;;;5070931;28;20052;-57
2022/07/19 00:46:23;;;;;;;10.93;5.70;;;;;;;;;;5061576;28;20041;-57
2022/07/19 00:48:50;;;;;;;9.37;6.43;;;;;;;;;;5060692;28;20048;-57
2022/07/19 00:51:16;;;;;;;11.03;6.77;;;;;;;;;;5059350;28;20583;-57
2022/07/19 00:53:43;;;;;;;9.83;6.40;;;;;;;;;;5058462;28;20048;-57
2022/07/19 00:56:10;;;;;;;10.10;6.30;;;;;;;;;;5060636;28;20040;-57
2022/07/19 00:58:37;;;;;;;10.90;6.90;;;;;;;;;;5059056;28;20132;-57
2022/07/19 01:01:04;;;;;;;9.43;6.93;;;;;;;;;;5058840;28;20152;-57
2022/07/19 01:03:30;;;;;;;12.77;7.67;;;;;;;;;;5061135;28;20048;-57
2022/07/19 01:05:57;;;;;;;12.03;7.57;;;;;;;;;;5057941;28;20041;-57
2022/07/19 01:08:23;;;;;;;12.17;8.50;;;;;;;;;;5058605;28;20106;-57
2022/07/19 01:10:49;;;;;;;12.03;9.73;;;;;;;;;;5060362;28;20513;-57
2022/07/19 01:13:15;;;;;;;14.03;8.43;;;;;;;;;;5058462;28;20068;-57
2022/07/19 01:15:42;;;;;;;11.37;8.97;;;;;;;;;;5054833;28;20103;-57
2022/07/19 01:18:08;;;;;;;13.97;9.43;;;;;;;;;;5058825;28;20123;-57
2022/07/19 01:20:34;;;;;;;13.70;9.80;;;;;;;;;;5056382;28;20037;-58
2022/07/19 01:23:01;;;;;;;10.77;8.40;;;;;;;;;;5057436;28;20095;-57
2022/07/19 01:25:29;;;;;;;11.97;8.53;;;;;;;;;;5056384;28;20036;-57
2022/07/19 01:27:55;;;;;;;12.37;8.90;;;;;;;;;;5058576;28;20044;-57
2022/07/19 01:30:22;;;;;;;11.30;8.57;;;;;;;;;;5058057;28;20040;-57
2022/07/19 01:32:49;;;;;;;12.37;8.73;;;;;;;;;;5057121;28;20037;-57
2022/07/19 01:35:15;;;;;;;12.17;8.50;;;;;;;;;;5058482;28;20087;-57
2022/07/19 01:37:41;;;;;;;11.13;8.23;;;;;;;;;;5058731;28;20147;-57
2022/07/19 01:40:09;;;;;;;11.80;8.00;;;;;;;;;;5057421;28;20037;-58
2022/07/19 01:42:35;;;;;;;12.73;7.07;;;;;;;;;;5058445;28;20064;-57
2022/07/19 01:45:02;;;;;;;12.20;7.60;;;;;;;;;;5059076;28;20168;-57
2022/07/19 01:47:28;;;;;;;14.23;7.80;;;;;;;;;;5059006;28;20036;-57
2022/07/19 01:49:54;;;;;;;9.73;7.27;;;;;;;;;;5051560;28;20148;-57
2022/07/19 01:52:20;;;;;;;11.27;8.00;;;;;;;;;;5048943;28;20040;-57
2022/07/19 01:54:46;;;;;;;12.53;7.53;;;;;;;;;;5049304;28;20549;-57
2022/07/19 01:57:12;;;;;;;11.07;6.97;;;;;;;;;;5049211;28;20087;-57
2022/07/19 01:59:39;;;;;;;10.57;7.83;;;;;;;;;;5048887;28;20057;-57
2022/07/19 02:02:05;;;;;;;15.03;8.67;;;;;;;;;;5048810;28;20040;-57
2022/07/19 02:04:31;;;;;;;12.33;8.17;;;;;;;;;;5048701;28;20087;-57
2022/07/19 02:06:58;;;;;;;16.27;7.97;;;;;;;;;;5048851;28;20056;-57
2022/07/19 02:09:24;;;;;;;12.50;8.40;;;;;;;;;;5048760;28;20048;-57
2022/07/19 02:11:50;;;;;;;12.97;8.23;;;;;;;;;;5049196;28;20045;-57
2022/07/19 02:14:16;;;;;;;13.50;8.93;;;;;;;;;;5048744;28;20499;-58
2022/07/19 02:16:42;;;;;;;11.80;7.90;;;;;;;;;;5048211;28;20041;-57
2022/07/19 02:19:08;;;;;;;14.03;9.10;;;;;;;;;;5048882;28;20045;-57
2022/07/19 02:21:35;;;;;;;13.27;8.63;;;;;;;;;;5048401;28;20041;-57
2022/07/19 02:24:02;;;;;;;10.60;8.47;;;;;;;;;;5048649;28;20045;-57
2022/07/19 02:26:28;;;;;;;12.17;9.57;;;;;;;;;;5049187;28;20048;-57
2022/07/19 02:28:54;;;;;;;12.00;9.60;;;;;;;;;;5048929;28;20127;-57
2022/07/19 02:31:20;;;;;;;15.13;8.90;;;;;;;;;;5048443;28;20059;-57
2022/07/19 02:33:46;;;;;;;15.10;9.23;;;;;;;;;;5048455;28;20227;-57
2022/07/19 02:36:12;;;;;;;15.70;10.20;;;;;;;;;;5048557;28;20119;-57
2022/07/19 02:38:39;;;;;;;15.97;9.60;;;;;;;;;;5048878;28;20073;-57
2022/07/19 02:41:05;;;;;;;12.73;9.40;;;;;;;;;;5048940;28;20048;-57
2022/07/19 02:43:31;;;;;;;12.67;9.37;;;;;;;;;;5048579;28;20425;-57
2022/07/19 02:45:57;;;;;;;12.00;9.07;;;;;;;;;;5048745;28;20049;-57
2022/07/19 02:48:23;;;;;;;10.90;8.97;;;;;;;;;;5048054;28;20049;-57
2022/07/19 02:50:49;;;;;;;16.93;9.10;;;;;;;;;;5048456;28;20041;-57
2022/07/19 02:53:15;;;;;;;10.53;8.17;;;;;;;;;;5048482;28;20094;-57
2022/07/19 02:55:41;;;;;;;11.87;8.70;;;;;;;;;;5048325;28;20044;-57
2022/07/19 02:58:07;;;;;;;10.13;8.50;;;;;;;;;;5048585;28;20051;-57
2022/07/19 03:00:33;;;;;;;15.80;9.97;;;;;;;;;;5047909;28;20049;-57
2022/07/19 03:03:43;;;;;;;12.43;9.10;;;;;;;;;;5048728;28;20052;-57
2022/07/19 03:05:46;;;;;;;13.20;9.03;;;;;;;;;;5056358;28;20045;-57
2022/07/19 03:08:12;;;;;;;16.63;9.40;;;;;;;;;;5056545;28;20037;-57
2022/07/19 03:10:38;;;;;;;14.23;10.30;;;;;;;;;;5056486;28;20075;-57
2022/07/19 03:13:04;;;;;;;11.47;9.27;;;;;;;;;;5058157;28;20033;-57
2022/07/19 03:15:31;;;;;;;18.50;10.93;;;;;;;;;;5057013;28;20049;-57
2022/07/19 03:17:57;;;;;;;12.07;8.90;;;;;;;;;;5056833;28;20036;-57
2022/07/19 03:20:23;;;;;;;14.03;9.83;;;;;;;;;;5058384;28;20064;-57
2022/07/19 03:22:49;;;;;;;14.30;9.67;;;;;;;;;;5056390;28;20037;-57
2022/07/19 03:25:16;;;;;;;15.43;10.97;;;;;;;;;;5056917;28;20456;-57
2022/07/19 03:27:42;;;;;;;13.37;9.33;;;;;;;;;;5059126;28;20471;-57
2022/07/19 03:30:09;;;;;;;19.10;10.60;;;;;;;;;;5060554;28;20422;-57
2022/07/19 03:32:35;;;;;;;16.10;10.03;;;;;;;;;;5060684;28;20538;-57
2022/07/19 03:35:01;;;;;;;13.90;9.80;;;;;;;;;;5061580;28;20133;-57
2022/07/19 03:37:27;;;;;;;12.87;10.63;;;;;;;;;;5059846;28;20047;-57
2022/07/19 03:39:53;;;;;;;12.60;10.33;;;;;;;;;;5060999;28;20777;-57
2022/07/19 03:42:19;;;;;;;20.67;10.20;;;;;;;;;;5060939;28;20052;-57
2022/07/19 03:44:45;;;;;;;15.67;10.67;;;;;;;;;;5059567;28;20051;-57
2022/07/19 03:47:11;;;;;;;15.60;10.67;;;;;;;;;;5060893;28;20047;-57
2022/07/19 03:49:37;;;;;;;14.10;9.97;;;;;;;;;;5060811;28;20048;-58
2022/07/19 03:52:03;;;;;;;11.83;9.63;;;;;;;;;;5059590;28;20579;-57
2022/07/19 03:54:29;;;;;;;16.57;10.37;;;;;;;;;;5060664;28;20044;-57
2022/07/19 03:56:55;;;;;;;14.40;9.97;;;;;;;;;;5060608;28;20114;-57
2022/07/19 03:59:22;;;;;;;13.17;9.87;;;;;;;;;;5065294;28;20090;-57
2022/07/19 04:01:49;;;;;;;16.67;11.17;;;;;;;;;;5071569;28;20123;-57
2022/07/19 04:04:15;;;;;;;13.97;9.83;;;;;;;;;;5070960;28;20359;-57
2022/07/19 04:06:41;;;;;;;14.30;10.40;;;;;;;;;;5071450;28;20052;-57
2022/07/19 04:09:07;;;;;;;18.30;10.63;;;;;;;;;;5071266;28;20032;-57
2022/07/19 04:11:33;;;;;;;14.90;10.50;;;;;;;;;;5070572;28;20090;-57
2022/07/19 04:13:59;;;;;;;12.13;9.90;;;;;;;;;;5071256;28;20036;-57
2022/07/19 04:16:26;;;;;;;16.57;10.70;;;;;;;;;;5071472;28;20045;-57
2022/07/19 04:18:51;;;;;;;17.30;9.53;;;;;;;;;;5071125;28;20143;-58
2022/07/19 04:21:18;;;;;;;15.87;9.70;;;;;;;;;;5071396;28;20145;-58
2022/07/19 04:23:44;;;;;;;12.07;8.90;;;;;;;;;;5070980;28;20127;-57
2022/07/19 04:26:10;;;;;;;13.43;8.40;;;;;;;;;;5071197;28;20274;-57
2022/07/19 04:28:36;;;;;;;16.10;9.50;;;;;;;;;;5070685;28;20045;-57
2022/07/19 04:31:02;;;;;;;13.43;9.13;;;;;;;;;;5070971;28;20106;-57
2022/07/19 04:33:28;;;;;;;13.37;8.70;;;;;;;;;;5070739;28;20064;-57
2022/07/19 04:35:54;;;;;;;11.23;8.47;;;;;;;;;;5070560;28;20133;-57
2022/07/19 04:38:21;;;;;;;18.73;9.60;;;;;;;;;;5070555;28;20384;-57
2022/07/19 04:40:47;;;;;;;12.33;8.77;;;;;;;;;;5069959;28;20139;-57
2022/07/19 04:43:13;;;;;;;13.53;8.00;;;;;;;;;;5070262;28;20133;-57
2022/07/19 04:45:41;;;;;;;13.47;7.93;;;;;;;;;;5070743;28;20044;-57
2022/07/19 04:48:07;;;;;;;14.57;8.83;;;;;;;;;;5070674;28;20494;-57
2022/07/19 04:50:33;;;;;;;10.73;7.97;;;;;;;;;;5070287;28;20136;-57
2022/07/19 04:53:00;;;;;;;14.00;8.80;;;;;;;;;;5070640;28;20053;-57
2022/07/19 04:55:26;;;;;;;11.93;7.90;;;;;;;;;;5067324;28;20867;-58
2022/07/19 04:57:52;;;;;;;17.73;8.50;;;;;;;;;;5060251;28;20033;-57
2022/07/19 05:00:18;;;;;;;12.00;8.07;;;;;;;;;;5058294;28;20514;-57
2022/07/19 05:02:44;;;;;;;16.87;8.93;;;;;;;;;;5059753;28;20047;-57
2022/07/19 05:05:10;;;;;;;14.60;9.70;;;;;;;;;;5057810;28;20072;-58
2022/07/19 05:07:36;;;;;;;12.17;8.90;;;;;;;;;;5057644;28;20041;-58
2022/07/19 05:10:03;;;;;;;15.83;9.43;;;;;;;;;;5059035;28;20131;-58
2022/07/19 05:12:29;;;;;;;13.90;9.60;;;;;;;;;;5057915;28;20033;-57
2022/07/19 05:14:55;;;;;;;14.93;9.33;;;;;;;;;;5057516;28;20654;-57
2022/07/19 05:17:21;;;;;;;11.80;9.30;;;;;;;;;;5058658;28;20055;-57
2022/07/19 05:19:47;;;;;;;11.90;6.87;;;;;;;;;;5056748;28;20040;-58
2022/07/19 05:22:13;;;;;;;12.47;6.50;;;;;;;;;;5058030;28;20047;-58
2022/07/19 05:24:39;;;;;;;9.07;5.53;;;;;;;;;;5057451;28;20045;-58
2022/07/19 05:27:05;;;;;;;9.50;6.30;;;;;;;;;;5056663;28;20036;-57
2022/07/19 05:29:31;;;;;;;11.77;7.50;;;;;;;;;;5058401;28;20056;-57
2022/07/19 05:31:57;;;;;;;15.80;8.00;;;;;;;;;;5058213;28;20490;-58
2022/07/19 05:34:23;;;;;;;12.47;8.57;;;;;;;;;;5056642;28;20087;-57
2022/07/19 05:36:49;;;;;;;19.97;8.90;;;;;;;;;;5058609;28;20036;-57
2022/07/19 05:39:16;;;;;;;20.63;11.20;;;;;;;;;;5057230;28;20474;-58
2022/07/19 05:41:42;;;;;;;19.40;9.80;;;;;;;;;;5066415;28;20043;-57
2022/07/19 05:44:08;;;;;;;13.87;9.33;;;;;;;;;;5068553;28;20060;-57
2022/07/19 05:46:37;;;;;;;15.70;10.43;;;;;;;;;;5067627;28;20048;-57
2022/07/19 05:49:03;;;;;;;17.20;9.00;;;;;;;;;;5067592;28;20052;-58
2022/07/19 05:51:29;;;;;;;20.13;9.63;;;;;;;;;;5066501;28;20542;-58
2022/07/19 05:53:55;;;;;;;19.57;10.07;;;;;;;;;;5068158;28;20040;-58
2022/07/19 05:56:21;;;;;;;20.27;11.53;;;;;;;;;;5068311;28;20133;-58
2022/07/19 05:58:47;;;;;;;20.57;10.77;;;;;;;;;;5067996;28;20098;-58
2022/07/19 06:01:19;;;;;;;17.23;9.27;;;;;;;;;;5067711;28;20498;-58
2022/07/19 06:03:46;;;;;;;17.70;9.13;;;;;;;;;;5067807;28;20495;-58
2022/07/19 06:06:13;;;;;;;16.13;9.33;;;;;;;;;;5068502;28;20125;-58
2022/07/19 06:08:39;;;;;;;15.77;5.50;;;;;;;;;;5067084;28;20110;-58
2022/07/19 06:11:05;;;;;;;7.60;4.60;;;;;;;;;;5068303;28;20059;-58
2022/07/19 06:13:31;;;;;;;7.40;4.00;;;;;;;;;;5067589;28;20059;-58
2022/07/19 06:15:57;;;;;;;8.00;4.43;;;;;;;;;;5068136;28;20616;-58
2022/07/19 06:18:23;;;;;;;11.70;3.90;;;;;;;;;;5068202;28;20052;-58
2022/07/19 06:20:49;;;;;;;7.50;4.30;;;;;;;;;;5067726;28;20052;-58
2022/07/19 06:23:15;;;;;;;9.00;4.20;;;;;;;;;;5067547;28;20118;-58
2022/07/19 06:25:41;;;;;;;8.77;3.60;;;;;;;;;;5068073;28;20530;-58
2022/07/19 06:28:07;;;;;;;6.33;3.87;;;;;;;;;;5067837;28;20048;-59
2022/07/19 06:30:33;;;;;;;8.73;4.00;;;;;;;;;;5067593;28;20057;-58
2022/07/19 06:33:00;;;;;;;9.63;4.30;;;;;;;;;;5068211;28;20048;-59
2022/07/19 06:35:26;;;;;;;8.47;4.17;;;;;;;;;;5067241;28;20079;-59
2022/07/19 06:37:52;;;;;;;8.47;3.67;;;;;;;;;;5067752;28;20040;-56
2022/07/19 06:40:18;;;;;;;6.43;3.00;;;;;;;;;;5067989;28;20100;-57
2022/07/19 06:42:44;;;;;;;5.63;3.60;;;;;;;;;;5067843;28;20063;-56
2022/07/19 06:45:10;;;;;;;9.60;3.70;;;;;;;;;;5067536;28;20048;-57
2022/07/19 06:47:37;;;;;;;9.33;3.70;;;;;;;;;;5067135;28;20040;-56
2022/07/19 06:50:03;;;;;;;8.07;3.50;;;;;;;;;;5067698;28;20048;-59
2022/07/19 06:52:29;;;;;;;11.77;3.50;;;;;;;;;;5067428;28;20082;-57
2022/07/19 06:54:55;;;;;;;5.57;3.10;;;;;;;;;;5067478;28;20049;-57
2022/07/19 06:57:21;;;;;;;6.37;3.40;;;;;;;;;;5067085;28;20052;-57
2022/07/19 06:59:47;;;;;;;8.03;3.23;;;;;;;;;;5067437;28;20048;-57
2022/07/19 07:02:13;;;;;;;7.60;3.80;;;;;;;;;;5067009;28;20394;-57
2022/07/19 07:04:39;;;;;;;7.13;3.10;;;;;;;;;;5067773;28;20048;-57
2022/07/19 07:07:05;;;;;;;6.80;3.60;;;;;;;;;;5067747;28;20066;-57
2022/07/19 07:09:31;;;;;;;6.17;3.33;;;;;;;;;;5066881;28;20074;-58
2022/07/19 07:11:57;;;;;;;7.17;3.47;;;;;;;;;;5067368;28;20055;-58
2022/07/19 07:14:23;;;;;;;5.47;3.27;;;;;;;;;;5067736;28;20040;-58
2022/07/19 07:16:49;;;;;;;10.37;3.70;;;;;;;;;;5067419;28;20041;-58
2022/07/19 07:19:15;;;;;;;7.87;3.33;;;;;;;;;;5067353;28;20048;-58
2022/07/19 07:21:41;;;;;;;10.40;3.97;;;;;;;;;;5067489;28;20047;-58
2022/07/19 07:24:07;;;;;;;8.87;3.60;;;;;;;;;;5066777;28;20155;-57
2022/07/19 07:26:33;;;;;;;6.37;3.37;;;;;;;;;;5067299;28;20067;-59
2022/07/19 07:28:59;;;;;;;8.10;3.40;;;;;;;;;;5067161;28;20048;-58
2022/07/19 07:31:25;;;;;;;8.03;3.07;;;;;;;;;;5066568;28;20037;-59
2022/07/19 07:33:51;;;;;;;6.70;3.30;;;;;;;;;;5067294;28;20109;-58
2022/07/19 07:36:17;;;;;;;6.50;2.67;;;;;;;;;;5067001;28;20044;-58
2022/07/19 07:38:43;;;;;;;6.70;3.13;;;;;;;;;;5067389;28;20387;-58
2022/07/19 07:41:10;;;;;;;6.47;2.93;;;;;;;;;;5067139;28;20040;-58
2022/07/19 07:43:38;;;;;;;6.70;3.40;;;;;;;;;;5066486;28;20060;-58
2022/07/19 07:46:05;;;;;;;8.63;3.50;;;;;;;;;;5067202;28;20900;-58
2022/07/19 07:48:31;;;;;;;6.07;2.70;;;;;;;;;;5067073;28;20084;-58
2022/07/19 07:50:57;;;;;;;10.13;2.90;;;;;;;;;;5067157;28;20098;-58
2022/07/19 07:53:23;;;;;;;8.45;2.97;;;;;;;;;;5067075;28;20154;-59
2022/07/19 07:55:49;;;;;;;5.22;2.42;;;;;;;;;;5066628;28;20127;-59
2022/07/19 07:58:15;;;;;;;5.78;3.10;;;;;;;;;;5067062;28;20127;-59
2022/07/19 08:00:41;;;;;;;10.35;3.00;;;;;;;;;;5066872;28;20127;-60
2022/07/19 08:03:07;;;;;;;7.03;2.70;;;;;;;;;;5067213;28;20127;-59
2022/07/19 08:05:33;;;;;;;8.63;2.58;;;;;;;;;;5066430;28;20461;-59
2022/07/19 08:08:00;;;;;;;10.68;3.28;;;;;;;;;;5066954;28;20041;-59
2022/07/19 08:10:27;;;;;;;4.40;2.10;;;;;;;;;;5067028;28;20433;-59
2022/07/19 08:12:56;;;;;;;4.43;2.40;;;;;;;;;;5066674;28;20048;-59
2022/07/19 08:15:22;;;;;;;5.72;2.50;;;;;;;;;;5068502;28;20048;-59
2022/07/19 08:17:48;;;;;;;5.95;2.42;;;;;;;;;;5070319;28;20040;-59
2022/07/19 08:20:15;;;;;;;3.88;2.20;;;;;;;;;;5070071;28;20395;-59
2022/07/19 08:22:41;;;;;;;6.97;2.72;;;;;;;;;;5070424;28;20052;-59
2022/07/19 08:25:07;;;;;;;5.50;2.60;;;;;;;;;;5069897;28;20041;-59
2022/07/19 08:27:33;;;;;;;4.80;2.42;;;;;;;;;;5070891;28;20083;-59
2022/07/19 08:29:59;;;;;;;6.22;2.53;;;;;;;;;;5070568;28;20056;-59
2022/07/19 08:32:26;;;;;;;7.53;2.30;;;;;;;;;;5067542;28;20048;-59
2022/07/19 08:34:52;;;;;;;7.97;2.72;;;;;;;;;;5071053;28;20070;-59
2022/07/19 08:37:18;;;;;;;7.47;2.60;;;;;;;;;;5070583;28;20041;-59
2022/07/19 08:39:44;;;;;;;4.85;1.98;;;;;;;;;;5069662;28;20536;-59
2022/07/19 08:42:10;;;;;;;6.68;2.17;;;;;;;;;;5070823;28;20056;-59
2022/07/19 08:44:39;;;;;;;6.53;2.65;;;;;;;;;;5067505;28;20049;-59
2022/07/19 08:47:05;;;;;;;7.45;2.60;;;;;;;;;;5070847;28;20044;-59
2022/07/19 08:49:32;;;;;;;6.25;2.17;;;;;;;;;;5070576;28;20044;-59
2022/07/19 08:51:58;;;;;;;8.10;2.72;;;;;;;;;;5070929;28;20048;-59
2022/07/19 08:54:24;;;;;;;6.75;2.38;;;;;;;;;;5070033;28;20493;-59
2022/07/19 08:59:35;;;;;;;7.63;2.50;;;;;;;;;;5070583;28;20487;-59
2022/07/19 09:02:01;;;;;;;7.90;2.60;;;;;;;;;;5070400;28;20044;-59
2022/07/19 09:04:28;;;;;;;8.00;2.58;;;;;;;;;;5070940;28;20071;-60
2022/07/19 09:06:58;;;;;;;5.93;2.33;;;;;;;;;;5070551;28;20059;-59
2022/07/19 09:09:25;;;;;;;5.90;2.75;;;;;;;;;;5070389;28;20048;-59
2022/07/19 09:11:52;;;;;;;4.15;2.15;;;;;;;;;;5070497;28;20081;-59
2022/07/19 09:14:28;;;;;;;7.18;2.55;;;;;;;;;;5069994;28;20080;-59
2022/07/19 09:17:23;;;;;;;7.93;2.35;;;;;;;;;;5070392;28;20052;-59
2022/07/19 09:19:49;;;;;;;5.68;2.95;;;;;;;;;;5065357;28;20053;-60
2022/07/19 09:22:17;;;;;;;9.52;2.55;;;;;;;;;;5069891;28;20048;-59
2022/07/19 09:24:44;;;;;;;7.75;2.50;;;;;;;;;;5069802;28;20076;-59
2022/07/19 09:27:12;;;;;;;6.35;2.50;;;;;;;;;;5069966;28;20044;-59
2022/07/19 09:29:45;;;;;;;11.05;2.75;;;;;;;;;;5069928;28;20048;-59
2022/07/19 09:32:11;;;;;;;4.90;2.35;;;;;;;;;;5070228;28;20087;-60
2022/07/19 09:34:39;;;;;;;7.88;2.40;;;;;;;;;;5069856;28;20565;-60
2022/07/19 09:37:09;;;;;;;9.82;2.75;;;;;;;;;;5069669;28;20481;-60
2022/07/19 09:39:35;;;;;;;8.73;2.55;;;;;;;;;;5068298;28;20067;-59
2022/07/19 09:42:03;;;;;;;7.20;2.55;;;;;;;;;;5070043;28;20048;-60
2022/07/19 09:44:29;;;;;;;7.07;2.00;;;;;;;;;;5069740;28;20052;-59
2022/07/19 09:46:55;;;;;;;7.50;2.67;;;;;;;;;;5067683;28;20624;-59
2022/07/19 09:49:22;;;;;;;8.48;2.13;;;;;;;;;;5069683;28;20074;-60
2022/07/19 09:51:49;;;;;;;10.18;2.30;;;;;;;;;;5069335;28;20134;-60
2022/07/19 09:54:16;;;;;;;5.20;1.75;;;;;;;;;;5069554;28;20041;-60
2022/07/19 09:56:44;;;;;;;6.25;2.20;;;;;;;;;;5069094;28;20066;-60
2022/07/19 09:59:10;;;;;;;3.83;1.67;;;;;;;;;;5067932;28;20052;-59
2022/07/19 10:01:37;;;;;;;5.47;1.52;;;;;;;;;;5069024;28;20418;-59
2022/07/19 10:04:07;;;;;;;7.03;2.00;;;;;;;;;;5068780;28;20410;-59
2022/07/19 10:06:33;;;;;;;5.78;1.98;;;;;;;;;;5069034;28;20064;-59
2022/07/19 10:09:00;;;;;;;6.82;2.42;;;;;;;;;;5069002;28;20044;-59
2022/07/19 10:11:27;;;;;;;4.60;1.92;;;;;;;;;;5068790;28;20066;-59
2022/07/19 10:13:54;;;;;;;4.25;1.98;;;;;;;;;;5068524;28;20040;-59
2022/07/19 10:16:25;;;;;;;7.70;1.90;;;;;;;;;;5069027;28;20079;-59
2022/07/19 10:18:56;;;;;;;6.35;1.90;;;;;;;;;;5069278;28;20045;-59
2022/07/19 10:21:22;;;;;;;7.32;1.60;;;;;;;;;;5068901;28;20040;-60
2022/07/19 10:23:52;;;;;;;9.80;2.75;;;;;;;;;;5068682;28;20044;-59
2022/07/19 10:26:53;;;;;;;5.25;2.17;;;;;;;;;;5068511;28;20087;-60
2022/07/19 10:29:19;;;;;;;4.10;1.77;;;;;;;;;;5046118;28;20048;-60
2022/07/19 10:32:02;;;;;;;6.80;2.35;;;;;;;;;;5063972;28;20044;-59
2022/07/19 10:34:28;;;;;;;3.45;1.70;;;;;;;;;;5068782;28;20127;-60
2022/07/19 10:36:55;;;;;;;4.65;1.50;;;;;;;;;;5068597;28;20036;-60
2022/07/19 10:39:23;;;;;;;4.75;1.90;;;;;;;;;;5068192;28;20048;-59
2022/07/19 10:42:09;;;;;;;5.65;2.00;;;;;;;;;;5068298;28;20599;-60
2022/07/19 10:45:02;;;;;;;6.18;1.80;;;;;;;;;;5068336;28;20048;-59
2022/07/19 10:47:39;;;;;;;4.43;1.52;;;;;;;;;;5068201;28;20433;-60
2022/07/19 10:50:14;;;;;;;4.35;1.42;;;;;;;;;;5068284;28;20052;-60
2022/07/19 10:52:42;;;;;;;5.57;1.83;;;;;;;;;;5068593;28;20048;-60
2022/07/19 10:55:17;;;;;;;4.32;2.10;;;;;;;;;;5068362;28;20391;-60
2022/07/19 10:57:47;;;;;;;7.95;1.73;;;;;;;;;;5068568;28;20856;-60
2022/07/19 11:00:16;;;;;;;3.45;1.65;;;;;;;;;;5068374;28;20077;-60
2022/07/19 11:02:42;;;;;;;6.07;1.75;;;;;;;;;;5068556;28;20422;-60
2022/07/19 11:05:20;;;;;;;6.22;2.30;;;;;;;;;;5068470;28;20044;-60
2022/07/19 11:07:50;;;;;;;9.20;2.00;;;;;;;;;;5068600;28;20048;-60
2022/07/19 11:10:26;;;;;;;5.35;1.52;;;;;;;;;;5067817;28;20132;-60
2022/07/19 11:12:52;;;;;;;3.80;1.50;;;;;;;;;;5068292;28;20487;-60
2022/07/19 11:15:18;;;;;;;5.10;1.50;;;;;;;;;;5068162;28;20491;-60
2022/07/19 11:17:53;;;;;;;7.60;1.80;;;;;;;;;;5067945;28;20163;-60
2022/07/19 11:20:22;;;;;;;7.55;1.70;;;;;;;;;;5068100;28;20048;-60
2022/07/19 11:22:48;;;;;;;7.38;1.80;;;;;;;;;;5068430;28;20044;-60
2022/07/19 11:25:15;;;;;;;5.75;1.70;;;;;;;;;;5068424;28;20454;-59
2022/07/19 11:27:45;;;;;;;6.00;1.70;;;;;;;;;;5068315;28;20127;-60
2022/07/19 11:30:12;;;;;;;8.38;1.80;;;;;;;;;;5068410;28;20052;-60
2022/07/19 11:32:41;;;;;;;6.38;2.00;;;;;;;;;;5067958;28;20045;-60
2022/07/19 11:35:08;;;;;;;7.25;1.48;;;;;;;;;;5068145;28;20044;-60
2022/07/19 11:37:38;;;;;;;4.63;1.88;;;;;;;;;;5067906;28;20056;-60
2022/07/19 11:40:04;;;;;;;4.85;1.75;;;;;;;;;;5067750;28;20423;-60
2022/07/19 11:42:32;;;;;;;5.00;1.77;;;;;;;;;;5067685;28;20159;-60
2022/07/19 11:44:58;;;;;;;6.68;1.60;;;;;;;;;;5068012;28;20498;-60
2022/07/19 11:47:24;;;;;;;4.25;1.40;;;;;;;;;;5067328;28;20131;-60
2022/07/19 11:49:50;;;;;;;4.53;1.55;;;;;;;;;;5070567;28;20139;-60
2022/07/19 11:52:17;;;;;;;7.68;1.50;;;;;;;;;;5071672;28;20110;-60
2022/07/19 11:54:58;;;;;;;3.85;1.50;;;;;;;;;;5071868;28;20044;-60
2022/07/19 11:57:24;;;;;;;4.47;1.83;;;;;;;;;;5071002;28;20422;-60
2022/07/19 11:59:50;;;;;;;5.50;1.40;;;;;;;;;;5071836;28;20037;-60
2022/07/19 12:02:17;;;;;;;6.07;1.30;;;;;;;;;;5071291;28;20134;-60
2022/07/19 12:04:43;;;;;;;4.85;1.20;;;;;;;;;;5071947;28;20127;-61
2022/07/19 12:07:09;;;;;;;2.22;1.20;;;;;;;;;;5071050;28;20110;-61
2022/07/19 12:09:35;;;;;;;5.43;1.50;;;;;;;;;;5071167;28;20040;-60
2022/07/19 12:12:11;;;;;;;4.97;1.30;;;;;;;;;;5071364;28;20048;-60
2022/07/19 12:14:37;;;;;;;2.83;1.08;;;;;;;;;;5071447;28;20141;-60
2022/07/19 12:17:12;;;;;;;2.33;1.38;;;;;;;;;;5070924;28;20064;-60
2022/07/19 12:19:39;;;;;;;3.42;1.55;;;;;;;;;;5070937;28;20048;-60
2022/07/19 12:22:06;;;;;;;4.38;1.58;;;;;;;;;;5071135;28;20048;-60
2022/07/19 12:24:32;;;;;;;6.00;1.60;;;;;;;;;;5070896;28;20052;-60
2022/07/19 12:27:00;;;;;;;3.45;1.40;;;;;;;;;;5071259;28;20044;-60
2022/07/19 12:29:26;;;;;;;2.35;1.10;;;;;;;;;;5070960;28;20044;-60
2022/07/19 12:31:54;;;;;;;6.55;1.60;;;;;;;;;;5070725;28;20564;-61
2022/07/19 12:34:20;;;;;;;5.40;1.35;;;;;;;;;;5071346;28;20410;-61
2022/07/19 12:36:46;;;;;;;2.38;1.05;;;;;;;;;;5071232;28;20080;-60
2022/07/19 12:39:20;;;;;;;4.10;1.33;;;;;;;;;;5071429;28;20071;-60
2022/07/19 12:41:53;;;;;;;4.35;1.30;;;;;;;;;;5070773;28;20040;-60
2022/07/19 12:44:19;;;;;;;8.68;1.58;;;;;;;;;;5070305;28;20091;-60
2022/07/19 12:46:45;;;;;;;1.95;1.10;;;;;;;;;;5070784;28;20140;-60
2022/07/19 12:49:11;;;;;;;8.20;1.35;;;;;;;;;;5070453;28;20056;-60
2022/07/19 12:51:42;;;;;;;2.15;1.00;;;;;;;;;;5070962;28;20117;-60
2022/07/19 12:54:08;;;;;;;;;;;;;;;;;;5070909;28;20131;-60
2022/07/19 12:56:34;;;;;;;5.10;1.15;;;;;;;;;;5070665;28;20007;-60
2022/07/19 13:01:45;;;;;;;6.97;1.50;;;;;;;;;;5069889;28;20056;-60
2022/07/19 13:04:11;;;;;;;5.85;1.08;;;;;;;;;;5070394;28;20036;-60
2022/07/19 13:06:37;;;;;;;6.32;1.60;;;;;;;;;;5070422;28;20045;-60
2022/07/19 13:09:03;;;;;;;4.90;1.50;;;;;;;;;;5069913;28;20056;-60
2022/07/19 13:11:29;;;;;;;7.57;1.50;;;;;;;;;;5070069;28;20517;-60
2022/07/19 13:13:55;;;;;;;5.03;1.10;;;;;;;;;;5070540;28;20044;-60
2022/07/19 13:16:22;;;;;;;2.92;1.20;;;;;;;;;;5069666;28;20056;-60
2022/07/19 13:18:49;;;;;;;4.25;1.40;;;;;;;;;;5069975;28;20052;-61
2022/07/19 13:21:16;;;;;;;3.28;1.13;;;;;;;;;;5069883;28;20056;-60
2022/07/19 13:23:42;;;;;;;5.35;1.65;;;;;;;;;;5069579;28;20380;-60
2022/07/19 13:26:08;;;;;;;2.97;1.20;;;;;;;;;;5068354;28;20052;-60
2022/07/19 13:28:35;;;;;;;8.40;1.35;;;;;;;;;;5069130;28;20049;-61
2022/07/19 13:31:01;;;;;;;6.97;1.30;;;;;;;;;;5068021;28;20044;-60
2022/07/19 13:33:27;;;;;;;2.15;1.23;;;;;;;;;;5068063;28;20050;-61
2022/07/19 13:35:53;;;;;;;4.53;1.55;;;;;;;;;;5067896;28;20649;-60
2022/07/19 13:38:19;;;;;;;3.50;1.20;;;;;;;;;;5067780;28;20036;-60
2022/07/19 13:40:45;;;;;;;4.85;1.73;;;;;;;;;;5068167;28;20040;-60
2022/07/19 13:43:11;;;;;;;6.90;1.67;;;;;;;;;;5067700;28;20113;-60
2022/07/19 13:45:37;;;;;;;8.38;1.45;;;;;;;;;;5068872;28;20135;-60
2022/07/19 13:48:03;;;;;;;5.50;1.48;;;;;;;;;;5069580;28;20056;-60
2022/07/19 13:50:30;;;;;;;3.42;1.33;;;;;;;;;;5068665;28;20056;-60
2022/07/19 13:52:57;;;;;;;3.88;1.35;;;;;;;;;;5069184;28;20098;-60
2022/07/19 13:55:23;;;;;;;7.28;1.10;;;;;;;;;;5069332;28;20045;-60
2022/07/19 13:57:49;;;;;;;4.43;1.20;;;;;;;;;;5068175;28;20071;-60
2022/07/19 14:00:17;;;;;;;3.60;1.25;;;;;;;;;;5068913;28;20048;-60
2022/07/19 14:02:43;;;;;;;6.35;1.60;;;;;;;;;;5069437;28;20049;-60
2022/07/19 14:05:09;;;;;;;4.13;1.40;;;;;;;;;;5069093;28;20044;-60
2022/07/19 14:07:36;;;;;;;3.92;1.30;;;;;;;;;;5069461;28;20045;-60
2022/07/19 14:10:02;;;;;;;5.95;1.40;;;;;;;;;;5069166;28;20044;-63
2022/07/19 14:12:28;;;;;;;4.10;1.40;;;;;;;;;;5067840;28;20044;-60
2022/07/19 14:14:54;;;;;;;5.45;1.30;;;;;;;;;;5069190;28;20093;-61
2022/07/19 14:17:20;;;;;;;2.95;1.10;;;;;;;;;;5068745;28;20607;-61
2022/07/19 14:19:46;;;;;;;3.97;1.40;;;;;;;;;;5068895;28;20048;-61
2022/07/19 14:22:12;;;;;;;5.40;1.40;;;;;;;;;;5068310;28;20081;-61
2022/07/19 14:24:39;;;;;;;5.75;1.40;;;;;;;;;;5069040;28;20051;-60
2022/07/19 14:27:05;;;;;;;4.22;1.30;;;;;;;;;;5068495;28;20391;-60
2022/07/19 14:29:31;;;;;;;3.22;1.33;;;;;;;;;;5068740;28;20050;-60
2022/07/19 14:31:58;;;;;;;3.65;1.33;;;;;;;;;;5068777;28;20070;-60
2022/07/19 14:34:24;;;;;;;3.72;1.73;;;;;;;;;;5068104;28;20056;-60
2022/07/19 14:36:50;;;;;;;3.67;1.27;;;;;;;;;;5068662;28;20411;-61
2022/07/19 14:39:16;;;;;;;3.55;1.50;;;;;;;;;;5068824;28;20040;-60
2022/07/19 14:41:43;;;;;;;2.78;1.05;;;;;;;;;;5068622;28;20506;-61